Sg Express — 3FGV6 — position and weather

sailwx.info

Track history (hours):
 
Tides and Currents Weather Stations Pressure Air Temp Water Temp Dewpoint Dewpoint Depression Visibility Wind Speed Wind Dir Waves Ship Positions

Sg Express

Last reported at 2017-Nov-24 07:30 UTC. Time now 2017-Dec-12 16:16 UTC.
Position S 18°19' E 118°23'.
Warning: this ship's position is 18 days out of date.

Length 295 m; draft 18.1 m.

Type: Cargo ship. MMSI: 351772000.

Date/timePositionNaut miles runAvg speedWind from/ knotsBaromVisibWave heightAir tempDewpointWater temp
2017-Nov-24 07:30S 18°19' E 118°23'12 9.3
2017-Nov-24 06:11S 18°30' E 118°18'2 9.3
2017-Nov-24 06:00S 18°32' E 118°17'14 9.3
2017-Nov-24 04:28S 18°45' E 118°12'10 9.4
2017-Nov-24 03:22S 18°55' E 118°08'3 9.5
2017-Nov-24 03:00S 18°58' E 118°06'6 9.2
2017-Nov-24 02:24S 19°03' E 118°04'11 9.2
2017-Nov-24 01:10S 19°13' E 117°59'2 9.6
2017-Nov-24 00:59S 19°15' E 117°58'6 9.8
2017-Nov-24 00:25S 19°20' E 117°56'4 9.9
2017-Nov-24 00:00S 19°24' E 117°55'510.1
2017-Nov-23 23:29S 19°29' E 117°53'6 9.9
2017-Nov-23 22:52S 19°34' E 117°50'11 9.7
2017-Nov-23 21:43S 19°45' E 117°45'2 9.9
2017-Nov-23 21:30S 19°47' E 117°44'5 9.8
2017-Nov-23 20:58S 19°51' E 117°42'4 9.8
2017-Nov-23 20:30S 19°56' E 117°40'5 9.8
2017-Nov-23 19:58S 20°00' E 117°38'5 9.8
2017-Nov-23 19:25S 20°05' E 117°36'6 9.9
2017-Nov-23 18:52S 20°11' E 117°34'3 9.9
2017-Nov-23 18:31S 20°14' E 117°32'6 9.7
2017-Nov-23 17:53S 20°19' E 117°30'7 8.4
2017-Nov-23 17:01S 20°25' E 117°25'1 9.9
2017-Nov-23 16:58S 20°25' E 117°24'5 9.0
2017-Nov-23 16:24S 20°28' E 117°20'4 9.9
2017-Nov-23 15:58S 20°30' E 117°16'510.1
2017-Nov-23 15:29S 20°34' E 117°13'2 4.2
2017-Nov-23 15:00S 20°35' E 117°11'0 0.0
2017-Nov-23 07:29S 20°35' E 117°11'0 0.0
2017-Nov-23 05:29S 20°35' E 117°11'0 0.0
2017-Nov-23 01:59S 20°35' E 117°11'0 0.0
2017-Nov-22 19:53S 20°35' E 117°11'  
Track history (hours):
 
Tides and Currents Weather Stations Pressure Air Temp Water Temp Dewpoint Dewpoint Depression Visibility Wind Speed Wind Dir Waves Ship Positions

Sg Express

Last reported at 2017-Nov-24 07:30 UTC. Time now 2017-Dec-12 16:16 UTC.
Position S 18°19' E 118°23'.
Warning: this ship's position is 18 days out of date.

Length 295 m; draft 18.1 m.

Type: Cargo ship. MMSI: 351772000.

Date/timePositionNaut miles runAvg speedWind from/ knotsBaromVisibWave heightAir tempDewpointWater temp
2017-Nov-24 07:30S 18°19' E 118°23'12 9.3
2017-Nov-24 06:11S 18°30' E 118°18'2 9.3
2017-Nov-24 06:00S 18°32' E 118°17'14 9.3
2017-Nov-24 04:28S 18°45' E 118°12'10 9.4
2017-Nov-24 03:22S 18°55' E 118°08'3 9.5
2017-Nov-24 03:00S 18°58' E 118°06'6 9.2
2017-Nov-24 02:24S 19°03' E 118°04'11 9.2
2017-Nov-24 01:10S 19°13' E 117°59'2 9.6
2017-Nov-24 00:59S 19°15' E 117°58'6 9.8
2017-Nov-24 00:25S 19°20' E 117°56'4 9.9
2017-Nov-24 00:00S 19°24' E 117°55'510.1
2017-Nov-23 23:29S 19°29' E 117°53'6 9.9
2017-Nov-23 22:52S 19°34' E 117°50'11 9.7
2017-Nov-23 21:43S 19°45' E 117°45'2 9.9
2017-Nov-23 21:30S 19°47' E 117°44'5 9.8
2017-Nov-23 20:58S 19°51' E 117°42'4 9.8
2017-Nov-23 20:30S 19°56' E 117°40'5 9.8
2017-Nov-23 19:58S 20°00' E 117°38'5 9.8
2017-Nov-23 19:25S 20°05' E 117°36'6 9.9
2017-Nov-23 18:52S 20°11' E 117°34'3 9.9
2017-Nov-23 18:31S 20°14' E 117°32'6 9.7
2017-Nov-23 17:53S 20°19' E 117°30'7 8.4
2017-Nov-23 17:01S 20°25' E 117°25'1 9.9
2017-Nov-23 16:58S 20°25' E 117°24'5 9.0
2017-Nov-23 16:24S 20°28' E 117°20'4 9.9
2017-Nov-23 15:58S 20°30' E 117°16'510.1
2017-Nov-23 15:29S 20°34' E 117°13'2 4.2
2017-Nov-23 15:00S 20°35' E 117°11'0 0.0
2017-Nov-23 07:29S 20°35' E 117°11'0 0.0
2017-Nov-23 05:29S 20°35' E 117°11'0 0.0
2017-Nov-23 01:59S 20°35' E 117°11'0 0.0
2017-Nov-22 19:53S 20°35' E 117°11'  

Dump ship's entire track history